Alpine Hibiscus — V7TZ6 — position and weather

sailwx.info

Track history (hours):
 
Tides and Currents Weather Stations Pressure Air Temp Water Temp Dewpoint Dewpoint Depression Visibility Wind Speed Wind Dir Waves Ship Positions

Alpine Hibiscus

Last reported at 2017-Nov-11 21:29 UTC. Time now 2017-Nov-22 16:44 UTC.
Position N 29°23' W 094°52'.
Warning: this ship's position is 10 days out of date.

Length 183 m; draft 7.4 m.

Type: Ship. MMSI: 538003913.

Date/timePositionNaut miles runAvg speedWind from/ knotsBaromVisibWave heightAir tempDewpointWater temp
2017-Nov-11 21:29N 29°23' W 094°52'1 0.0
2017-Nov-10 16:25N 29°23' W 094°53'  
2017-Nov-04 05:14N 25°34' W 079°34'311.2
2017-Nov-04 04:59N 25°37' W 079°34'511.2
2017-Nov-04 04:30N 25°42' W 079°33'1011.3
2017-Nov-04 03:38N 25°52' W 079°32'511.2
2017-Nov-04 03:12N 25°57' W 079°31'711.2
2017-Nov-04 02:33N 26°04' W 079°30'111.3
2017-Nov-04 02:30N 26°05' W 079°30'811.4
2017-Nov-04 01:45N 26°13' W 079°29'310.5
2017-Nov-04 01:30N 26°16' W 079°28'  
Track history (hours):
 
Tides and Currents Weather Stations Pressure Air Temp Water Temp Dewpoint Dewpoint Depression Visibility Wind Speed Wind Dir Waves Ship Positions

Alpine Hibiscus

Last reported at 2017-Nov-11 21:29 UTC. Time now 2017-Nov-22 16:44 UTC.
Position N 29°23' W 094°52'.
Warning: this ship's position is 10 days out of date.

Length 183 m; draft 7.4 m.

Type: Ship. MMSI: 538003913.

Date/timePositionNaut miles runAvg speedWind from/ knotsBaromVisibWave heightAir tempDewpointWater temp
2017-Nov-11 21:29N 29°23' W 094°52'1 0.0
2017-Nov-10 16:25N 29°23' W 094°53'  
2017-Nov-04 05:14N 25°34' W 079°34'311.2
2017-Nov-04 04:59N 25°37' W 079°34'511.2
2017-Nov-04 04:30N 25°42' W 079°33'1011.3
2017-Nov-04 03:38N 25°52' W 079°32'511.2
2017-Nov-04 03:12N 25°57' W 079°31'711.2
2017-Nov-04 02:33N 26°04' W 079°30'111.3
2017-Nov-04 02:30N 26°05' W 079°30'811.4
2017-Nov-04 01:45N 26°13' W 079°29'310.5
2017-Nov-04 01:30N 26°16' W 079°28'  

Dump ship's entire track history